Time;durP1;ratioP1;P1;durP2;ratioP2;P2;SDS_P1;SDS_P2;PMS_P1;PMS_P2;Temp;Humidity;BMP_temperature;BMP_pressure;BME280_temperature;BME280_humidity;BME280_pressure;Samples;Min_cycle;Max_cycle;Signal;HPM_P1;HPM_P2
2023/02/04 00:00:22;;;;;;;1.87;0.77;;;6.90;99.90;;;;;;4832376;29;20034;-89
2023/02/04 00:02:48;;;;;;;6.40;0.70;;;6.90;99.90;;;;;;4829799;29;20032;-89
2023/02/04 00:05:19;;;;;;;2.23;0.80;;;6.80;99.90;;;;;;4833814;29;20041;-91
2023/02/04 00:07:45;;;;;;;2.00;0.70;;;6.80;99.90;;;;;;4826591;29;20082;-90
2023/02/04 00:10:14;;;;;;;2.10;0.77;;;7.00;99.90;;;;;;4832306;29;20041;-90
2023/02/04 00:12:39;;;;;;;2.10;0.60;;;6.80;99.90;;;;;;4820855;29;20113;-90
2023/02/04 00:15:06;;;;;;;2.30;0.73;;;6.80;99.90;;;;;;4820656;29;20491;-90
2023/02/04 00:17:34;;;;;;;2.40;0.90;;;6.80;99.90;;;;;;4822184;29;20038;-90
2023/02/04 00:20:00;;;;;;;2.60;0.80;;;7.60;99.90;;;;;;4820292;29;20030;-90
2023/02/04 00:22:27;;;;;;;1.50;0.50;;;6.70;99.90;;;;;;4828047;29;20112;-89
2023/02/04 00:24:53;;;;;;;1.13;0.43;;;6.70;99.90;;;;;;4828470;29;20066;-89
2023/02/04 00:27:18;;;;;;;2.43;0.80;;;7.40;99.90;;;;;;4831110;29;20455;-89
2023/02/04 00:29:47;;;;;;;2.57;0.77;;;6.60;99.90;;;;;;4823080;29;20404;-90
2023/02/04 00:32:16;;;;;;;1.00;0.50;;;7.20;99.90;;;;;;4823821;29;20377;-89
2023/02/04 00:34:41;;;;;;;2.87;0.90;;;6.90;99.90;;;;;;4821181;29;20027;-90
2023/02/04 00:37:10;;;;;;;2.17;0.60;;;7.00;99.90;;;;;;4815214;29;20030;-89
2023/02/04 00:39:36;;;;;;;1.47;0.50;;;6.90;99.90;;;;;;4822585;29;20041;-90
2023/02/04 00:42:01;;;;;;;3.20;0.60;;;6.70;99.90;;;;;;4829344;29;20017;-90
2023/02/04 00:44:27;;;;;;;1.97;0.60;;;6.80;99.90;;;;;;4822732;29;20091;-90
2023/02/04 00:46:53;;;;;;;1.47;0.60;;;6.80;99.90;;;;;;4826981;29;20022;-90
2023/02/04 00:49:18;;;;;;;2.43;0.70;;;6.80;99.90;;;;;;4821098;29;20083;-90
2023/02/04 00:51:45;;;;;;;1.63;0.50;;;6.80;99.90;;;;;;4826355;29;20117;-90
2023/02/04 00:54:13;;;;;;;1.27;0.40;;;6.80;99.90;;;;;;4822630;29;20022;-90
2023/02/04 00:56:39;;;;;;;1.40;0.50;;;6.80;99.90;;;;;;4823544;29;20027;-89
2023/02/04 00:59:04;;;;;;;1.50;0.30;;;6.80;99.90;;;;;;4820663;29;20026;-89
2023/02/04 01:01:30;;;;;;;1.37;0.50;;;6.90;99.90;;;;;;4815848;29;20031;-90
2023/02/04 01:03:56;;;;;;;2.00;0.40;;;6.90;99.90;;;;;;4822972;29;20078;-90
2023/02/04 01:06:21;;;;;;;1.33;0.40;;;6.90;99.90;;;;;;4822880;29;20018;-90
2023/02/04 01:08:47;;;;;;;1.23;0.40;;;7.00;99.90;;;;;;4821581;29;20031;-90
2023/02/04 01:11:13;;;;;;;2.40;0.50;;;6.90;99.90;;;;;;4820072;29;20058;-89
2023/02/04 01:13:41;;;;;;;2.42;0.50;;;7.50;99.90;;;;;;4827455;29;20030;-89
2023/02/04 01:16:07;;;;;;;1.07;0.50;;;6.90;99.90;;;;;;4824576;29;20035;-88
2023/02/04 01:18:36;;;;;;;1.23;0.47;;;6.90;99.90;;;;;;4829411;29;20487;-89
2023/02/04 01:21:02;;;;;;;2.20;0.60;;;6.80;99.90;;;;;;4824815;29;20057;-89
2023/02/04 01:23:27;;;;;;;1.37;0.43;;;6.80;99.90;;;;;;4823640;29;20022;-90
2023/02/04 01:25:56;;;;;;;2.07;0.70;;;7.00;99.90;;;;;;4822596;29;20562;-89
2023/02/04 01:28:22;;;;;;;1.33;0.70;;;7.60;99.90;;;;;;4824478;29;20119;-90
2023/02/04 01:30:48;;;;;;;2.17;0.60;;;6.60;99.90;;;;;;4825213;29;20026;-90
2023/02/04 01:33:13;;;;;;;1.87;0.70;;;6.80;99.90;;;;;;4824420;29;20118;-90
2023/02/04 01:35:39;;;;;;;3.30;0.70;;;6.90;99.90;;;;;;4819076;29;20027;-89
2023/02/04 01:38:04;;;;;;;5.30;0.70;;;7.60;99.90;;;;;;4822599;29;20035;-89
2023/02/04 01:40:30;;;;;;;1.27;0.60;;;6.70;99.90;;;;;;4822784;29;20491;-89
2023/02/04 01:42:56;;;;;;;1.67;0.40;;;7.50;99.90;;;;;;4824835;29;20452;-90
2023/02/04 01:45:22;;;;;;;2.40;0.67;;;6.70;99.90;;;;;;4833037;29;20028;-90
2023/02/04 01:47:48;;;;;;;1.17;0.60;;;6.70;99.90;;;;;;4826265;29;20036;-90
2023/02/04 01:50:17;;;;;;;1.97;0.23;;;6.70;99.90;;;;;;4826117;29;20037;-90
2023/02/04 01:52:44;;;;;;;0.80;0.30;;;6.60;99.90;;;;;;4827420;29;20113;-90
2023/02/04 01:55:18;;;;;;;2.53;0.40;;;7.10;99.90;;;;;;4828626;29;20030;-89
2023/02/04 01:57:45;;;;;;;0.60;0.30;;;6.50;99.90;;;;;;4827287;29;20030;-89
2023/02/04 02:00:34;;;;;;;2.27;0.50;;;6.50;99.90;;;;;;4825868;29;20457;-90
2023/02/04 02:03:02;;;;;;;1.20;0.37;;;6.30;99.90;;;;;;4836532;29;20059;-90
2023/02/04 02:05:38;;;;;;;0.93;0.20;;;6.80;99.90;;;;;;4826099;29;20039;-89
2023/02/04 02:08:06;;;;;;;2.97;0.30;;;7.10;99.90;;;;;;4827458;29;20026;-89
2023/02/04 02:10:36;;;;;;;0.57;0.20;;;7.40;99.90;;;;;;4825987;29;20492;-89
2023/02/04 02:13:04;;;;;;;1.57;0.30;;;6.40;99.90;;;;;;4823527;29;20030;-90
2023/02/04 02:15:29;;;;;;;1.60;0.20;;;7.10;99.90;;;;;;4823615;29;20591;-89
2023/02/04 02:17:58;;;;;;;0.40;0.20;;;6.80;99.90;;;;;;4823497;29;20121;-90
2023/02/04 02:20:25;;;;;;;1.53;0.10;;;6.40;99.90;;;;;;4822264;29;20034;-89
2023/02/04 02:23:09;;;;;;;0.80;0.50;;;6.30;99.90;;;;;;4822845;29;20109;-90
2023/02/04 02:25:35;;;;;;;1.43;0.20;;;6.30;99.90;;;;;;4832101;29;20501;-89
2023/02/04 02:28:03;;;;;;;1.23;0.50;;;6.50;99.90;;;;;;4824987;29;20086;-89
2023/02/04 02:30:29;;;;;;;3.57;0.27;;;6.60;99.90;;;;;;4817241;29;20038;-89
2023/02/04 02:32:55;;;;;;;0.40;0.07;;;6.30;99.90;;;;;;4821582;29;20074;-89
2023/02/04 02:35:22;;;;;;;2.87;0.50;;;6.80;99.90;;;;;;4816879;29;20167;-89
2023/02/04 02:37:47;;;;;;;1.30;0.30;;;7.10;99.90;;;;;;4842679;29;20034;-90
2023/02/04 02:40:19;;;;;;;0.97;0.30;;;6.20;99.90;;;;;;4820189;29;20563;-89
2023/02/04 02:42:48;;;;;;;2.33;0.47;;;6.10;99.90;;;;;;4832531;29;20139;-89
2023/02/04 02:45:27;;;;;;;1.27;0.20;;;6.70;99.90;;;;;;4818380;29;20260;-90
2023/02/04 02:47:55;;;;;;;1.00;0.20;;;6.60;99.90;;;;;;4831506;29;20089;-90
2023/02/04 02:50:24;;;;;;;1.80;0.40;;;6.90;99.90;;;;;;4832313;29;20034;-89
2023/02/04 02:52:51;;;;;;;2.07;0.30;;;6.00;99.90;;;;;;4829527;29;20078;-89
2023/02/04 02:55:19;;;;;;;0.40;0.10;;;5.90;99.90;;;;;;4829633;29;20030;-90
2023/02/04 02:57:46;;;;;;;1.07;0.17;;;5.90;99.90;;;;;;4823777;29;20030;-89
2023/02/04 03:00:26;;;;;;;2.73;0.20;;;5.90;99.90;;;;;;4822871;29;20022;-88
2023/02/04 03:02:59;;;;;;;2.77;0.50;;;5.90;99.90;;;;;;4823874;29;20041;-90
2023/02/04 03:05:28;;;;;;;3.50;0.30;;;5.90;99.90;;;;;;4823283;29;20035;-90
2023/02/04 03:07:54;;;;;;;4.20;0.60;;;5.80;99.90;;;;;;4823642;29;20461;-89
2023/02/04 03:10:19;;;;;;;4.33;0.30;;;5.80;99.90;;;;;;4823415;29;20041;-90
2023/02/04 03:12:48;;;;;;;0.87;0.30;;;5.80;99.90;;;;;;4829223;29;20031;-89
2023/02/04 03:15:14;;;;;;;5.97;0.20;;;5.80;99.90;;;;;;4827521;29;20503;-89
2023/02/04 03:17:40;;;;;;;1.23;0.20;;;5.80;99.90;;;;;;4829706;29;20038;-89
2023/02/04 03:20:07;;;;;;;0.73;0.30;;;5.80;99.90;;;;;;4836712;29;20648;-89
2023/02/04 03:22:33;;;;;;;2.63;0.33;;;5.80;99.90;;;;;;4830182;29;20030;-89
2023/02/04 03:24:59;;;;;;;1.70;0.40;;;5.80;99.90;;;;;;4829582;29;20038;-90
2023/02/04 03:27:27;;;;;;;1.33;0.43;;;5.80;99.90;;;;;;4826008;29;20045;-90
2023/02/04 03:29:53;;;;;;;2.00;0.30;;;5.80;99.90;;;;;;4827295;29;20023;-90
2023/02/04 03:32:18;;;;;;;3.47;0.53;;;5.70;99.90;;;;;;4829531;29;20082;-89
2023/02/04 03:34:44;;;;;;;0.80;0.30;;;5.70;99.90;;;;;;4825298;29;20058;-90
2023/02/04 03:37:09;;;;;;;2.63;0.60;;;5.70;99.90;;;;;;4824175;29;20030;-90
2023/02/04 03:39:35;;;;;;;1.87;0.30;;;5.70;99.90;;;;;;4823819;29;20041;-90
2023/02/04 03:42:01;;;;;;;4.33;0.47;;;5.70;99.90;;;;;;4826029;29;20051;-90
2023/02/04 03:44:26;;;;;;;1.23;0.40;;;5.70;99.90;;;;;;4827599;29;20045;-89
2023/02/04 03:46:55;;;;;;;2.27;0.73;;;5.60;99.90;;;;;;4835479;29;20526;-91
2023/02/04 03:49:24;;;;;;;1.70;0.47;;;5.60;99.90;;;;;;4852625;23;20053;-88
2023/02/04 03:51:50;;;;;;;1.30;0.53;;;5.60;99.90;;;;;;4847253;29;20026;-87
2023/02/04 03:54:16;;;;;;;1.53;0.33;;;5.60;99.90;;;;;;4839928;29;20037;-88
2023/02/04 03:56:42;;;;;;;0.90;0.30;;;5.60;99.90;;;;;;4839684;29;20096;-87
2023/02/04 03:59:07;;;;;;;0.87;0.37;;;6.40;99.90;;;;;;4838084;29;20082;-88
2023/02/04 04:01:33;;;;;;;3.40;0.47;;;5.70;99.90;;;;;;4839552;29;20511;-87
2023/02/04 04:03:58;;;;;;;1.27;0.40;;;5.60;99.90;;;;;;4839731;29;20054;-88
2023/02/04 04:06:24;;;;;;;0.77;0.30;;;5.60;99.90;;;;;;4838866;29;20488;-87
2023/02/04 04:08:50;;;;;;;1.27;0.40;;;5.60;99.90;;;;;;4840086;29;20033;-88
2023/02/04 04:11:15;;;;;;;1.67;0.47;;;5.70;99.90;;;;;;4838999;29;20061;-88
2023/02/04 04:13:41;;;;;;;1.37;0.37;;;5.60;99.90;;;;;;4840255;29;20041;-88
2023/02/04 04:16:07;;;;;;;1.97;0.43;;;5.60;99.90;;;;;;4839902;29;20037;-88
2023/02/04 04:18:34;;;;;;;5.10;0.43;;;5.60;99.90;;;;;;4840794;29;20439;-88
2023/02/04 04:21:00;;;;;;;1.03;0.40;;;5.70;99.90;;;;;;4841423;29;20054;-89
2023/02/04 04:23:26;;;;;;;3.57;0.67;;;5.60;99.90;;;;;;4839822;29;20049;-88
2023/02/04 04:25:52;;;;;;;3.53;0.43;;;5.40;99.90;;;;;;4841406;29;20018;-88
2023/02/04 04:28:17;;;;;;;4.27;0.53;;;6.00;99.90;;;;;;4841240;29;20038;-89
2023/02/04 04:30:43;;;;;;;1.43;0.60;;;5.70;99.90;;;;;;4837704;29;20042;-88
2023/02/04 04:33:09;;;;;;;1.00;0.23;;;5.60;99.90;;;;;;4828121;29;20030;-88
2023/02/04 04:35:35;;;;;;;1.40;0.57;;;5.70;99.90;;;;;;4839090;29;20034;-87
2023/02/04 04:38:01;;;;;;;5.10;0.43;;;5.60;99.90;;;;;;4838977;29;20055;-88
2023/02/04 04:40:27;;;;;;;4.00;0.50;;;5.70;99.90;;;;;;4838132;29;20030;-88
2023/02/04 04:42:52;;;;;;;1.93;0.30;;;5.60;99.90;;;;;;4838236;29;20022;-88
2023/02/04 04:45:18;;;;;;;1.67;0.60;;;5.60;99.90;;;;;;4838904;29;20034;-88
2023/02/04 04:47:44;;;;;;;1.63;0.50;;;5.60;99.90;;;;;;4838118;29;20034;-88
2023/02/04 04:50:13;;;;;;;2.90;0.60;;;5.60;99.90;;;;;;4838800;29;20045;-88
2023/02/04 04:52:39;;;;;;;1.87;0.70;;;5.70;99.90;;;;;;4835704;29;20050;-88
2023/02/04 04:55:05;;;;;;;1.53;0.50;;;5.60;99.90;;;;;;4839106;29;20042;-88
2023/02/04 04:57:33;;;;;;;3.97;0.43;;;5.60;99.90;;;;;;4838689;29;20480;-88
2023/02/04 04:59:59;;;;;;;2.17;1.10;;;5.60;99.90;;;;;;4841312;29;20026;-88
2023/02/04 05:02:24;;;;;;;4.17;0.50;;;5.60;99.90;;;;;;4841863;29;20030;-88
2023/02/04 05:04:50;;;;;;;3.30;0.90;;;5.80;99.90;;;;;;4841049;29;20395;-88
2023/02/04 05:07:16;;;;;;;1.27;0.40;;;5.50;99.90;;;;;;4841918;29;20045;-88
2023/02/04 05:09:41;;;;;;;1.80;0.50;;;5.60;99.90;;;;;;4843077;29;20074;-88
2023/02/04 05:12:07;;;;;;;1.87;0.57;;;5.60;99.90;;;;;;4841714;29;20497;-88
2023/02/04 05:14:32;;;;;;;1.20;0.50;;;5.60;99.90;;;;;;4842896;29;20022;-89
2023/02/04 05:16:58;;;;;;;5.23;0.67;;;5.60;99.90;;;;;;4838181;29;20113;-88
2023/02/04 05:19:24;;;;;;;2.70;0.50;;;5.60;99.90;;;;;;4839743;29;20030;-88
2023/02/04 05:21:49;;;;;;;2.30;0.77;;;6.20;99.90;;;;;;4842668;29;20026;-88
2023/02/04 05:24:17;;;;;;;1.63;0.90;;;5.50;99.90;;;;;;4843517;29;20395;-88
2023/02/04 05:26:43;;;;;;;1.87;0.63;;;5.90;99.90;;;;;;4841653;29;20030;-88
2023/02/04 05:29:09;;;;;;;3.43;1.00;;;5.50;99.90;;;;;;4842532;29;20098;-89
2023/02/04 05:31:35;;;;;;;3.00;0.70;;;5.40;99.90;;;;;;4841805;29;20026;-88
2023/02/04 05:34:00;;;;;;;1.90;0.67;;;6.00;99.90;;;;;;4842069;29;20090;-88
2023/02/04 05:36:26;;;;;;;2.53;0.63;;;5.70;99.90;;;;;;4842035;29;20125;-88
2023/02/04 05:38:52;;;;;;;3.47;0.73;;;6.00;99.90;;;;;;4843727;29;20049;-89
2023/02/04 05:41:17;;;;;;;1.97;0.70;;;5.90;99.90;;;;;;4841853;29;20034;-88
2023/02/04 05:43:43;;;;;;;3.00;0.87;;;5.40;99.90;;;;;;4842813;29;20476;-88
2023/02/04 05:46:09;;;;;;;3.23;0.90;;;5.40;99.90;;;;;;4842099;29;20024;-88
2023/02/04 05:48:34;;;;;;;5.27;0.90;;;5.30;99.90;;;;;;4842579;29;20030;-88
2023/02/04 05:51:00;;;;;;;2.77;1.00;;;5.30;99.90;;;;;;4840531;29;20471;-88
2023/02/04 05:53:25;;;;;;;2.70;0.60;;;5.40;99.90;;;;;;4842550;29;20154;-87
2023/02/04 05:55:51;;;;;;;4.07;1.10;;;5.50;99.90;;;;;;4840674;29;20026;-88
2023/02/04 05:58:16;;;;;;;4.43;0.90;;;5.30;99.90;;;;;;4841809;29;20113;-88
2023/02/04 06:00:48;;;;;;;3.27;0.97;;;5.50;99.90;;;;;;4838578;29;20101;-89
2023/02/04 06:03:14;;;;;;;3.00;1.00;;;5.30;99.90;;;;;;4842691;29;20112;-88
2023/02/04 06:05:40;;;;;;;5.47;0.73;;;5.60;99.90;;;;;;4842117;29;20125;-88
2023/02/04 06:08:09;;;;;;;5.60;0.97;;;5.30;99.90;;;;;;4841720;29;20026;-88
2023/02/04 06:10:35;;;;;;;3.57;0.80;;;5.00;99.90;;;;;;4841858;29;20037;-88
2023/02/04 06:13:01;;;;;;;8.13;1.20;;;5.20;99.90;;;;;;4841043;29;20026;-88
2023/02/04 06:15:32;;;;;;;2.73;0.83;;;5.30;99.90;;;;;;4841603;29;20057;-88
2023/02/04 06:18:00;;;;;;;5.80;1.23;;;5.30;99.90;;;;;;4839207;29;20532;-88
2023/02/04 06:20:26;;;;;;;2.23;1.00;;;5.30;99.90;;;;;;4839150;29;20029;-88
2023/02/04 06:22:53;;;;;;;7.47;1.10;;;5.00;99.90;;;;;;4841091;29;20377;-88
2023/02/04 06:25:27;;;;;;;2.63;1.00;;;5.20;99.90;;;;;;4843444;29;20038;-88
2023/02/04 06:27:53;;;;;;;5.47;1.17;;;5.10;99.90;;;;;;4843222;29;20094;-88
2023/02/04 06:30:18;;;;;;;2.73;0.80;;;5.20;99.90;;;;;;4843437;29;20057;-87
2023/02/04 06:32:47;;;;;;;6.13;1.13;;;5.80;99.90;;;;;;4839314;29;20034;-88
2023/02/04 06:35:15;;;;;;;3.43;1.27;;;5.10;99.90;;;;;;4843390;29;20038;-88
2023/02/04 06:37:47;;;;;;;2.80;1.03;;;5.10;99.90;;;;;;4843836;29;20033;-89
2023/02/04 06:40:13;;;;;;;4.00;0.90;;;5.00;99.90;;;;;;4842068;29;20057;-88
2023/02/04 06:42:41;;;;;;;7.80;1.10;;;5.10;99.90;;;;;;4843629;29;20395;-88
2023/02/04 06:45:07;;;;;;;2.90;0.83;;;5.20;99.90;;;;;;4844096;29;20014;-88
2023/02/04 06:47:33;;;;;;;3.20;1.03;;;5.10;99.90;;;;;;4844165;29;20026;-88
2023/02/04 06:49:59;;;;;;;4.73;1.03;;;5.10;99.90;;;;;;4845422;29;20085;-88
2023/02/04 06:52:24;;;;;;;4.97;0.90;;;5.60;99.90;;;;;;4847653;29;20198;-88
2023/02/04 06:54:58;;;;;;;4.90;1.00;;;5.20;99.90;;;;;;4848083;29;20022;-87
2023/02/04 06:57:27;;;;;;;8.37;0.97;;;5.20;99.90;;;;;;4849542;29;20029;-88
2023/02/04 06:59:53;;;;;;;6.87;0.90;;;5.10;99.90;;;;;;4843286;29;20022;-88
2023/02/04 07:02:22;;;;;;;7.03;1.27;;;5.10;99.90;;;;;;4852300;29;20384;-88
2023/02/04 07:04:50;;;;;;;3.00;1.00;;;5.30;99.90;;;;;;4849749;29;20057;-88
2023/02/04 07:07:16;;;;;;;5.30;1.30;;;5.30;99.90;;;;;;4847008;29;20026;-88
2023/02/04 07:09:49;;;;;;;3.87;1.13;;;5.70;99.90;;;;;;4845421;29;20049;-88
2023/02/04 07:12:22;;;;;;;7.30;1.30;;;4.90;99.90;;;;;;4844716;29;20026;-88
2023/02/04 07:14:48;;;;;;;5.53;1.17;;;5.00;99.90;;;;;;4849048;29;20106;-88
2023/02/04 07:17:18;;;;;;;4.40;1.33;;;5.10;99.90;;;;;;4847505;29;20046;-88
2023/02/04 07:19:44;;;;;;;12.40;1.70;;;4.80;99.90;;;;;;4840387;29;20063;-88
2023/02/04 07:22:10;;;;;;;7.17;1.10;;;5.00;99.90;;;;;;4843292;29;20030;-88
2023/02/04 07:24:35;;;;;;;2.30;1.07;;;5.10;99.90;;;;;;4838407;29;20084;-89
2023/02/04 07:27:01;;;;;;;2.57;1.00;;;5.10;99.90;;;;;;4841560;29;20086;-88
2023/02/04 07:29:27;;;;;;;5.30;0.90;;;5.40;99.90;;;;;;4841486;29;20038;-88
2023/02/04 07:31:53;;;;;;;3.77;1.20;;;5.10;99.90;;;;;;4841792;29;20033;-89
2023/02/04 07:34:19;;;;;;;7.53;1.50;;;5.10;99.90;;;;;;4840627;29;20097;-89
2023/02/04 07:36:44;;;;;;;5.20;1.07;;;5.10;99.90;;;;;;4840826;29;20037;-89
2023/02/04 07:39:10;;;;;;;9.90;0.97;;;5.10;99.90;;;;;;4842623;29;20030;-88
2023/02/04 07:41:36;;;;;;;4.17;1.10;;;5.20;99.90;;;;;;4840441;29;20030;-88
2023/02/04 07:44:02;;;;;;;10.00;1.50;;;5.20;99.90;;;;;;4840659;29;20109;-88
2023/02/04 07:46:28;;;;;;;4.57;1.13;;;5.20;99.90;;;;;;4840936;29;20026;-88
2023/02/04 07:48:53;;;;;;;8.90;1.53;;;5.60;99.90;;;;;;4841071;29;20046;-88
2023/02/04 07:51:25;;;;;;;2.63;1.17;;;5.70;99.90;;;;;;4837498;29;20042;-88
2023/02/04 07:53:51;;;;;;;3.72;1.00;;;5.70;99.90;;;;;;4841351;29;20053;-88
2023/02/04 07:56:17;;;;;;;5.17;1.30;;;5.20;99.90;;;;;;4845650;29;20042;-88
2023/02/04 07:58:42;;;;;;;6.10;1.17;;;5.80;99.90;;;;;;4840822;29;20034;-89
2023/02/04 08:01:08;;;;;;;2.33;0.80;;;5.00;99.90;;;;;;4834717;29;20045;-89
2023/02/04 08:03:36;;;;;;;6.80;1.33;;;5.20;99.90;;;;;;4840818;29;20070;-89
2023/02/04 08:06:06;;;;;;;3.23;1.13;;;5.20;99.90;;;;;;4841391;29;20026;-89
2023/02/04 08:08:33;;;;;;;7.47;1.50;;;5.30;99.90;;;;;;4844819;29;20097;-89
2023/02/04 08:10:58;;;;;;;4.60;0.90;;;5.50;99.90;;;;;;4840441;29;20411;-90
2023/02/04 08:13:24;;;;;;;6.03;0.83;;;5.20;99.90;;;;;;4841414;29;20037;-89
2023/02/04 08:15:50;;;;;;;5.40;1.87;;;5.70;99.90;;;;;;4841029;29;20037;-90
2023/02/04 08:18:17;;;;;;;5.90;1.20;;;5.20;99.90;;;;;;4845178;29;20366;-89
2023/02/04 08:20:43;;;;;;;1.77;0.70;;;5.20;99.90;;;;;;4845573;29;20029;-88
2023/02/04 08:23:09;;;;;;;8.13;0.87;;;5.20;99.90;;;;;;4844627;29;20034;-89
2023/02/04 08:25:35;;;;;;;9.03;0.97;;;5.20;99.90;;;;;;4839983;29;20407;-88
2023/02/04 08:28:00;;;;;;;6.60;0.87;;;5.60;99.90;;;;;;4841232;29;20771;-88
2023/02/04 08:30:26;;;;;;;5.67;1.40;;;5.80;99.90;;;;;;4840970;29;20078;-89
2023/02/04 08:32:52;;;;;;;4.57;1.13;;;4.90;99.90;;;;;;4842199;29;20044;-88
2023/02/04 08:35:23;;;;;;;9.37;1.60;;;5.40;99.90;;;;;;4843708;29;20061;-90
2023/02/04 08:37:49;;;;;;;3.42;1.00;;;5.30;99.90;;;;;;4841818;29;20030;-89
2023/02/04 08:40:15;;;;;;;2.47;0.73;;;5.90;99.90;;;;;;4840046;29;20098;-89
2023/02/04 08:42:40;;;;;;;7.23;1.30;;;5.60;99.90;;;;;;4839260;29;20636;-89
2023/02/04 08:45:06;;;;;;;6.30;0.83;;;5.40;99.90;;;;;;4837421;29;20463;-88
2023/02/04 08:47:33;;;;;;;4.50;0.90;;;5.30;99.90;;;;;;4837660;29;20082;-88
2023/02/04 08:49:59;;;;;;;7.67;1.13;;;5.60;99.90;;;;;;4835117;29;20038;-88
2023/02/04 08:52:28;;;;;;;6.83;0.97;;;5.60;99.90;;;;;;4840328;29;20105;-88
2023/02/04 08:54:53;;;;;;;2.70;0.63;;;5.40;99.90;;;;;;4844801;29;20049;-89
2023/02/04 08:57:24;;;;;;;3.83;0.63;;;5.40;99.90;;;;;;4840845;29;20037;-89
2023/02/04 08:59:53;;;;;;;5.13;0.57;;;5.40;99.90;;;;;;4838331;29;20035;-88
2023/02/04 09:02:18;;;;;;;1.30;0.40;;;5.40;99.90;;;;;;4831316;29;20041;-89
2023/02/04 09:04:44;;;;;;;2.57;0.70;;;6.00;99.90;;;;;;4832268;29;20033;-89
2023/02/04 09:07:10;;;;;;;3.80;0.70;;;5.40;99.90;;;;;;4837725;29;20539;-88
2023/02/04 09:09:36;;;;;;;3.77;0.93;;;5.30;99.90;;;;;;4837119;29;20038;-89
2023/02/04 09:12:02;;;;;;;4.73;0.83;;;5.90;99.90;;;;;;4836036;29;20083;-88
2023/02/04 09:14:30;;;;;;;2.63;1.00;;;5.50;99.90;;;;;;4837616;29;20030;-88
2023/02/04 09:16:58;;;;;;;5.60;1.10;;;5.60;99.90;;;;;;4833069;29;20072;-89
2023/02/04 09:19:24;;;;;;;2.50;0.73;;;5.70;99.90;;;;;;4831823;29;20029;-88
2023/02/04 09:21:53;;;;;;;8.27;0.90;;;5.70;99.90;;;;;;4827019;29;20025;-88
2023/02/04 09:24:22;;;;;;;4.97;0.70;;;5.70;99.90;;;;;;4837138;29;20076;-88
2023/02/04 09:26:48;;;;;;;3.93;0.97;;;6.10;99.90;;;;;;4829612;29;20019;-87
2023/02/04 09:29:15;;;;;;;7.90;0.77;;;6.20;99.90;;;;;;4839406;29;20466;-88
2023/02/04 09:31:43;;;;;;;6.07;0.90;;;6.20;99.90;;;;;;4833899;29;20061;-89
2023/02/04 09:34:12;;;;;;;5.47;0.97;;;6.00;99.90;;;;;;4831808;29;20069;-88
2023/02/04 09:36:38;;;;;;;3.73;0.50;;;6.00;99.90;;;;;;4835780;29;20061;-88
2023/02/04 09:39:08;;;;;;;3.70;0.77;;;6.80;99.90;;;;;;4830547;29;20025;-89
2023/02/04 09:41:41;;;;;;;3.47;0.63;;;6.10;99.90;;;;;;4838814;29;20022;-89
2023/02/04 09:44:28;;;;;;;5.00;0.90;;;6.30;99.90;;;;;;4833723;29;20070;-88
2023/02/04 09:46:59;;;;;;;5.30;0.70;;;6.40;99.90;;;;;;4836527;29;20038;-89
2023/02/04 09:49:26;;;;;;;4.50;1.10;;;6.40;99.90;;;;;;4848343;29;20042;-89
2023/02/04 09:51:53;;;;;;;3.27;1.13;;;6.40;99.90;;;;;;4840893;29;20038;-89
2023/02/04 09:54:25;;;;;;;3.77;0.80;;;6.80;99.90;;;;;;4841947;29;20033;-88
2023/02/04 09:56:51;;;;;;;5.15;0.68;;;6.60;99.90;;;;;;4846785;29;20021;-87
2023/02/04 09:59:20;;;;;;;3.93;0.60;;;6.80;99.90;;;;;;4845066;29;20041;-87
2023/02/04 10:02:21;;;;;;;4.30;0.63;;;6.80;99.90;;;;;;4843010;29;20099;-88
2023/02/04 10:04:49;;;;;;;3.63;0.30;;;6.60;99.90;;;;;;4842276;29;20037;-89
2023/02/04 10:07:23;;;;;;;3.03;0.83;;;6.80;99.90;;;;;;4845803;29;20025;-88
2023/02/04 10:09:49;;;;;;;1.30;0.37;;;6.70;99.90;;;;;;4839657;29;20073;-87
2023/02/04 10:12:30;;;;;;;0.90;0.30;;;6.80;99.90;;;;;;4842412;29;20105;-89
2023/02/04 10:15:01;;;;;;;3.30;0.50;;;7.30;99.90;;;;;;4838790;29;20029;-88
2023/02/04 10:17:27;;;;;;;1.70;0.40;;;7.10;99.90;;;;;;4840987;29;20114;-88
2023/02/04 10:19:55;;;;;;;7.47;0.63;;;7.30;99.90;;;;;;4843454;29;20029;-88
2023/02/04 10:22:24;;;;;;;2.33;0.50;;;7.50;99.90;;;;;;4842566;29;20026;-88
2023/02/04 10:24:50;;;;;;;3.17;0.67;;;7.70;99.90;;;;;;4842215;29;20087;-87
2023/02/04 10:27:22;;;;;;;7.33;1.03;;;7.70;99.90;;;;;;4840876;29;20030;-89
2023/02/04 10:29:57;;;;;;;0.95;0.35;;;7.70;99.90;;;;;;4846922;29;20121;-88
2023/02/04 10:32:32;;;;;;;5.35;0.77;;;7.60;99.90;;;;;;4844312;29;20091;-89
2023/02/04 10:35:01;;;;;;;4.87;0.70;;;7.70;99.90;;;;;;4845463;29;20117;-88
2023/02/04 10:37:29;;;;;;;2.47;0.33;;;7.30;99.90;;;;;;4845575;29;20038;-88
2023/02/04 10:40:01;;;;;;;7.90;0.70;;;7.20;99.90;;;;;;4842939;29;20061;-88
2023/02/04 10:42:28;;;;;;;3.78;0.52;;;7.30;99.90;;;;;;4859011;29;20033;-89
2023/02/04 10:45:02;;;;;;;2.43;0.80;;;7.40;99.90;;;;;;4844462;29;20030;-88
2023/02/04 10:47:29;;;;;;;3.03;0.60;;;7.50;99.90;;;;;;4846713;29;20056;-88
2023/02/04 10:50:25;;;;;;;3.60;0.43;;;7.80;99.90;;;;;;4842757;29;20065;-89
2023/02/04 10:54:28;;;;;;;8.02;0.73;;;8.30;99.90;;;;;;4847206;29;20022;-88
2023/02/04 10:55:50;;;;;;;3.22;0.57;;;7.80;99.90;;;;;;4856181;29;20047;-89
2023/02/04 10:58:32;;;;;;;3.63;0.70;;;7.90;99.90;;;;;;4843104;29;20030;-88
2023/02/04 11:01:01;;;;;;;3.05;0.73;;;8.50;99.90;;;;;;4846074;29;20034;-90
2023/02/04 11:03:36;;;;;;;4.05;1.42;;;7.70;99.90;;;;;;4845253;29;20488;-89
2023/02/04 11:06:16;;;;;;;6.33;1.33;;;7.70;99.90;;;;;;4844525;29;20026;-89
2023/02/04 11:08:52;;;;;;;3.55;0.40;;;7.80;99.90;;;;;;4842714;29;20041;-88
2023/02/04 11:11:25;;;;;;;3.50;0.60;;;7.70;99.90;;;;;;4844621;29;20061;-89
2023/02/04 11:14:06;;;;;;;1.75;0.30;;;7.70;99.90;;;;;;4849399;29;20022;-92
2023/02/04 11:16:46;;;;;;;2.15;0.55;;;7.70;99.90;;;;;;4858530;29;20030;-92
2023/02/04 11:19:32;;;;;;;5.77;1.23;;;7.30;99.90;;;;;;4853222;29;20022;-90
2023/02/04 11:22:45;;;;;;;3.33;0.52;;;7.80;99.90;;;;;;4852677;29;20034;-92
2023/02/04 11:26:06;;;;;;;6.40;1.10;;;7.30;99.90;;;;;;4849195;29;20034;-91
2023/02/04 11:39:26;;;;;;;2.40;0.50;;;7.90;99.90;;;;;;4867060;24;20058;-89
2023/02/04 11:42:10;;;;;;;;;;;;;;;;;;;;;
2023/02/04 11:44:59;;;;;;;3.67;0.57;;;8.00;99.90;;;;;;4844152;29;20062;-89
2023/02/04 11:47:38;;;;;;;5.78;0.73;;;8.40;99.90;;;;;;4854993;29;20074;-89
2023/02/04 11:50:30;;;;;;;6.23;0.70;;;7.90;99.90;;;;;;4840234;29;20034;-89
2023/02/04 11:53:00;;;;;;;6.30;1.10;;;7.80;99.90;;;;;;4848061;29;20037;-90
2023/02/04 11:55:28;;;;;;;4.18;0.75;;;7.60;99.90;;;;;;4850078;29;20042;-90
2023/02/04 11:58:04;;;;;;;4.43;0.87;;;7.50;99.90;;;;;;4844237;29;20117;-90
2023/02/04 12:00:34;;;;;;;2.93;0.87;;;7.50;99.90;;;;;;4844451;29;20018;-90
2023/02/04 12:03:10;;;;;;;5.15;0.70;;;7.50;99.90;;;;;;4844143;29;20107;-89
2023/02/04 12:05:57;;;;;;;1.50;0.50;;;7.50;99.90;;;;;;4843623;29;20030;-90
2023/02/04 12:08:29;;;;;;;4.53;0.47;;;7.90;99.90;;;;;;4851285;29;20038;-91
2023/02/04 12:11:02;;;;;;;4.17;0.40;;;7.60;99.90;;;;;;4847009;29;20029;-91
2023/02/04 12:13:29;;;;;;;;;;;7.60;99.90;;;;;;4848746;29;20116;-91
2023/02/04 12:16:05;;;;;;;3.27;0.57;;;7.60;99.90;;;;;;4850808;29;19972;-90
2023/02/04 12:18:34;;;;;;;5.83;0.40;;;7.60;99.90;;;;;;4844014;29;20033;-90
2023/02/04 12:21:03;;;;;;;3.83;0.50;;;8.20;99.90;;;;;;4840002;29;20022;-90
2023/02/04 12:23:30;;;;;;;2.43;0.50;;;7.60;99.90;;;;;;4839696;29;20022;-90
2023/02/04 12:26:00;;;;;;;6.10;0.93;;;7.10;99.90;;;;;;4836705;29;20037;-89
2023/02/04 12:28:31;;;;;;;2.47;0.30;;;8.20;99.90;;;;;;4838764;29;20039;-90
2023/02/04 12:30:57;;;;;;;2.90;0.43;;;7.90;99.90;;;;;;4836462;29;20121;-90
2023/02/04 12:33:28;;;;;;;1.83;0.60;;;7.50;99.90;;;;;;4840386;29;20327;-90
2023/02/04 12:35:57;;;;;;;2.35;0.60;;;8.20;99.90;;;;;;4834785;29;20036;-90
2023/02/04 12:38:22;;;;;;;6.83;0.60;;;7.50;99.90;;;;;;4837290;29;20029;-90
2023/02/04 12:41:19;;;;;;;3.00;0.30;;;8.40;99.90;;;;;;4839812;29;20031;-89
2023/02/04 12:44:04;;;;;;;5.47;1.07;;;7.60;99.90;;;;;;4834902;29;20030;-90
2023/02/04 12:46:46;;;;;;;3.10;1.00;;;7.60;99.90;;;;;;4855619;29;20031;-89
2023/02/04 12:49:23;;;;;;;1.48;0.38;;;7.70;99.90;;;;;;4841985;29;20038;-90
2023/02/04 12:52:01;;;;;;;1.40;0.40;;;7.70;99.90;;;;;;4852640;29;20035;-90
2023/02/04 12:55:00;;;;;;;2.78;0.40;;;8.00;99.90;;;;;;4839370;29;20035;-90
2023/02/04 12:57:26;;;;;;;4.95;0.50;;;7.90;99.90;;;;;;4830567;29;20030;-90
2023/02/04 13:00:12;;;;;;;5.15;0.93;;;8.00;99.90;;;;;;4839028;29;20062;-90
2023/02/04 13:03:07;;;;;;;4.10;0.22;;;7.50;99.90;;;;;;4840862;29;20117;-91
2023/02/04 13:05:38;;;;;;;1.47;0.33;;;7.50;99.90;;;;;;4840337;29;20034;-90
2023/02/04 13:08:12;;;;;;;5.35;0.50;;;7.70;99.90;;;;;;4846069;29;20045;-90
2023/02/04 13:10:50;;;;;;;1.80;0.30;;;7.50;99.90;;;;;;4841829;29;20054;-90
2023/02/04 13:13:20;;;;;;;3.00;0.57;;;7.40;99.90;;;;;;4844587;29;20033;-89
2023/02/04 13:16:23;;;;;;;2.37;0.37;;;7.70;99.90;;;;;;4842650;29;20038;-89
2023/02/04 13:18:52;;;;;;;4.43;0.40;;;7.90;99.90;;;;;;4840021;29;20031;-90